createdAt,value
2019-05-09T00:00:33.387Z,50.60
2019-05-09T00:03:08.422Z,51.57
2019-05-09T00:05:50.554Z,51.25
2019-05-09T00:08:28.037Z,52.28
2019-05-09T00:11:10.887Z,52.32
2019-05-09T00:13:43.453Z,53.11
2019-05-09T00:16:23.307Z,53.13
2019-05-09T00:19:00.192Z,52.84
2019-05-09T00:21:43.721Z,53.03
2019-05-09T00:24:18.945Z,52.52
2019-05-09T00:26:58.899Z,53.25
2019-05-09T00:29:41.065Z,53.11
2019-05-09T00:32:35.003Z,52.95
2019-05-09T00:35:24.581Z,52.80
2019-05-09T00:38:06.601Z,53.14
2019-05-09T00:40:51.625Z,52.68
2019-05-09T00:43:15.782Z,52.55
2019-05-09T00:46:10.200Z,52.89
2019-05-09T00:49:07.514Z,52.43
2019-05-09T00:51:43.700Z,51.81
2019-05-09T00:54:18.196Z,51.87
2019-05-09T00:57:03.206Z,51.67
2019-05-09T00:59:46.981Z,51.26
2019-05-09T01:02:18.250Z,50.48
2019-05-09T01:04:53.133Z,50.90
2019-05-09T01:07:26.794Z,50.25
2019-05-09T01:10:03.983Z,51.19
2019-05-09T01:12:34.265Z,50.45
2019-05-09T01:15:05.170Z,51.31
2019-05-09T01:17:38.678Z,51.15
2019-05-09T01:20:11.520Z,51.92
2019-05-09T01:22:44.294Z,51.29
2019-05-09T01:25:19.631Z,51.75
2019-05-09T01:27:54.027Z,51.40
2019-05-09T01:33:36.027Z,51.32
2019-05-09T01:36:11.307Z,51.08
2019-05-09T01:38:47.080Z,51.75
2019-05-09T01:41:28.004Z,52.90
2019-05-09T01:43:57.605Z,52.12
2019-05-09T01:46:34.415Z,50.80
2019-05-09T01:49:08.054Z,51.45
2019-05-09T01:51:44.490Z,51.55
2019-05-09T01:54:18.165Z,51.88
2019-05-09T01:56:49.946Z,51.36
2019-05-09T01:59:24.238Z,51.37
2019-05-09T02:02:07.233Z,50.95
2019-05-09T02:04:37.256Z,51.51
2019-05-09T02:07:13.280Z,51.48
2019-05-09T02:09:48.037Z,51.32
2019-05-09T02:12:26.313Z,50.65
2019-05-09T02:15:08.320Z,50.90
2019-05-09T02:18:08.986Z,50.69
2019-05-09T02:20:40.661Z,50.76
2019-05-09T02:23:13.974Z,51.16
2019-05-09T02:25:46.732Z,52.76
2019-05-09T02:28:20.780Z,53.16
2019-05-09T02:33:50.538Z,53.09
2019-05-09T02:36:22.831Z,52.41
2019-05-09T02:38:54.924Z,52.51
2019-05-09T02:41:31.713Z,52.52
2019-05-09T02:44:09.044Z,52.71
2019-05-09T02:47:02.074Z,53.52
2019-05-09T02:49:39.824Z,53.40
2019-05-09T02:52:14.418Z,52.61
2019-05-09T02:54:59.680Z,53.17
2019-05-09T02:57:37.450Z,52.74
2019-05-09T03:00:45.303Z,53.25
2019-05-09T03:03:29.028Z,53.74
2019-05-09T03:06:03.905Z,53.04
2019-05-09T03:08:38.617Z,53.59
2019-05-09T03:11:18.756Z,54.60
2019-05-09T03:13:49.749Z,53.38
2019-05-09T03:16:29.379Z,54.24
2019-05-09T03:19:09.098Z,53.85
2019-05-09T03:21:49.406Z,53.45
2019-05-09T03:24:22.490Z,53.39
2019-05-09T03:26:59.559Z,53.47
2019-05-09T03:29:42.647Z,53.14
2019-05-09T03:32:12.893Z,52.88
2019-05-09T03:34:45.102Z,53.34
2019-05-09T03:37:19.939Z,52.94
2019-05-09T03:39:50.115Z,53.87
2019-05-09T03:42:38.109Z,53.09
2019-05-09T03:45:00.365Z,54.38
2019-05-09T03:47:42.052Z,53.88
2019-05-09T03:50:17.706Z,53.16
2019-05-09T03:52:54.166Z,52.99
2019-05-09T03:55:30.313Z,53.64
2019-05-09T03:58:18.385Z,52.89
2019-05-09T04:00:59.008Z,53.47
2019-05-09T04:03:30.298Z,55.66
2019-05-09T04:06:08.309Z,53.86
2019-05-09T04:08:39.548Z,53.86
2019-05-09T04:11:11.511Z,54.60
2019-05-09T04:13:50.753Z,53.41
2019-05-09T04:16:22.162Z,53.83
2019-05-09T04:18:54.262Z,53.04
2019-05-09T04:21:40.456Z,53.48
2019-05-09T04:24:12.638Z,54.25
2019-05-09T04:26:54.147Z,53.75
2019-05-09T04:29:28.588Z,52.88
2019-05-09T04:32:00.816Z,51.97
2019-05-09T04:34:32.233Z,53.07
2019-05-09T04:37:03.498Z,53.71
2019-05-09T04:39:40.620Z,53.27
2019-05-09T04:42:12.743Z,52.29
2019-05-09T04:45:03.407Z,51.87
2019-05-09T04:47:41.417Z,52.25
2019-05-09T04:50:10.056Z,54.55
2019-05-09T04:52:42.935Z,53.29
2019-05-09T04:55:18.959Z,52.89
2019-05-09T04:57:52.208Z,53.07
2019-05-09T05:00:37.724Z,52.89
2019-05-09T05:03:10.231Z,52.77
2019-05-09T05:05:42.513Z,52.00
2019-05-09T05:08:13.191Z,53.60
2019-05-09T05:10:51.610Z,53.96
2019-05-09T05:13:26.787Z,53.07
2019-05-09T05:16:02.146Z,52.07
2019-05-09T05:18:33.718Z,51.69
2019-05-09T05:21:12.426Z,52.95
2019-05-09T05:24:08.174Z,52.02
2019-05-09T05:26:48.452Z,52.28
2019-05-09T05:29:25.104Z,51.45
2019-05-09T05:32:00.413Z,51.88
2019-05-09T05:34:44.138Z,51.90
2019-05-09T05:37:17.690Z,52.28
2019-05-09T05:39:51.426Z,52.17
2019-05-09T05:42:23.021Z,52.15
2019-05-09T05:44:55.184Z,51.56
2019-05-09T05:47:39.232Z,51.38
2019-05-09T05:50:12.052Z,52.79
2019-05-09T05:52:57.782Z,53.26
2019-05-09T05:55:29.667Z,52.71
2019-05-09T05:58:08.607Z,53.08
2019-05-09T06:00:43.332Z,52.34
2019-05-09T06:03:14.534Z,52.07
2019-05-09T06:05:51.325Z,51.48
2019-05-09T06:08:27.443Z,51.32
2019-05-09T06:11:19.155Z,52.09
2019-05-09T06:14:05.107Z,51.55
2019-05-09T06:16:41.209Z,51.56
2019-05-09T06:19:17.938Z,51.34
2019-05-09T06:21:52.306Z,50.88
2019-05-09T06:24:31.771Z,51.53
2019-05-09T06:27:10.374Z,51.60
2019-05-09T06:29:53.262Z,52.70
2019-05-09T06:32:27.940Z,50.99
2019-05-09T06:35:01.499Z,51.63
2019-05-09T06:37:32.605Z,50.71
2019-05-09T06:40:21.655Z,51.44
2019-05-09T06:43:03.264Z,51.13
2019-05-09T06:45:57.996Z,50.59
2019-05-09T06:48:32.344Z,52.97
2019-05-09T06:51:11.418Z,51.24
2019-05-09T06:53:50.991Z,50.46
2019-05-09T06:56:28.305Z,51.81
2019-05-09T06:59:14.809Z,51.71
2019-05-09T07:02:04.265Z,50.63
2019-05-09T07:05:01.197Z,50.55
2019-05-09T07:08:08.002Z,49.42
2019-05-09T07:13:43.272Z,48.44
2019-05-09T07:16:18.717Z,48.49
2019-05-09T07:18:58.823Z,47.98
2019-05-09T07:21:48.987Z,47.80
2019-05-09T07:24:28.646Z,46.78
2019-05-09T07:27:04.592Z,47.63
2019-05-09T07:29:38.158Z,47.33
2019-05-09T07:32:14.284Z,46.34
2019-05-09T07:34:53.089Z,46.95
2019-05-09T07:37:27.455Z,46.56
2019-05-09T07:39:59.275Z,46.33
2019-05-09T07:42:39.129Z,47.65
2019-05-09T07:45:31.460Z,48.00
2019-05-09T07:48:07.623Z,46.96
2019-05-09T07:50:48.315Z,46.45
2019-05-09T07:53:21.303Z,46.14
2019-05-09T07:55:58.069Z,46.20
2019-05-09T07:58:28.423Z,45.98
2019-05-09T08:01:03.515Z,45.56
2019-05-09T08:03:59.206Z,47.47
2019-05-09T08:06:49.783Z,46.49
2019-05-09T08:09:28.164Z,45.23
2019-05-09T08:12:09.614Z,45.33
2019-05-09T08:14:55.287Z,45.99
2019-05-09T08:17:18.960Z,45.36
2019-05-09T08:19:54.983Z,46.38
2019-05-09T08:22:32.146Z,46.73
2019-05-09T08:25:02.785Z,45.86
2019-05-09T08:27:37.581Z,46.75
2019-05-09T08:30:17.993Z,46.02
2019-05-09T08:32:51.266Z,45.28
2019-05-09T08:35:27.853Z,45.57
2019-05-09T08:38:03.513Z,45.31
2019-05-09T08:40:37.926Z,44.99
2019-05-09T08:43:09.760Z,45.34
2019-05-09T08:45:41.193Z,46.27
2019-05-09T08:48:18.408Z,45.60
2019-05-09T08:50:58.420Z,45.20
2019-05-09T08:53:35.111Z,46.88
2019-05-09T08:56:32.770Z,46.84
2019-05-09T08:59:08.346Z,48.76
2019-05-09T09:02:07.793Z,47.91
2019-05-09T09:04:25.732Z,46.92
2019-05-09T09:07:02.794Z,47.14
2019-05-09T09:09:38.210Z,46.48
2019-05-09T09:12:26.088Z,46.07
2019-05-09T09:14:59.511Z,45.12
2019-05-09T09:17:33.761Z,44.08
2019-05-09T09:20:10.948Z,43.77
2019-05-09T09:22:47.820Z,43.52
2019-05-09T09:25:19.920Z,44.84
2019-05-09T09:27:57.485Z,46.22
2019-05-09T09:30:32.595Z,44.44
2019-05-09T09:33:04.784Z,44.43
2019-05-09T09:35:39.022Z,43.59
2019-05-09T09:38:12.333Z,43.60
2019-05-09T09:40:51.595Z,44.84
2019-05-09T09:43:24.669Z,44.71
2019-05-09T09:46:10.068Z,44.28
2019-05-09T09:48:30.132Z,45.10
2019-05-09T09:51:00.955Z,45.80
2019-05-09T09:53:34.470Z,45.15
2019-05-09T09:56:10.280Z,44.86
2019-05-09T09:59:08.182Z,43.95
2019-05-09T10:01:48.225Z,44.65
2019-05-09T10:04:24.364Z,44.13
2019-05-09T10:07:10.365Z,43.36
2019-05-09T10:09:43.608Z,44.38
2019-05-09T10:12:18.398Z,43.74
2019-05-09T10:14:59.908Z,44.10
2019-05-09T10:17:54.144Z,43.68
2019-05-09T10:20:44.367Z,43.48
2019-05-09T10:23:21.231Z,43.68
2019-05-09T10:26:08.555Z,44.14
2019-05-09T10:28:48.387Z,44.46
2019-05-09T10:31:20.887Z,44.58
2019-05-09T10:33:51.257Z,43.51
2019-05-09T10:36:27.836Z,44.22
2019-05-09T10:39:02.336Z,45.06
2019-05-09T10:41:57.747Z,44.54
2019-05-09T10:44:37.528Z,44.79
2019-05-09T10:47:30.944Z,44.71
2019-05-09T10:50:08.537Z,43.89
2019-05-09T10:52:48.011Z,44.27
2019-05-09T10:55:22.653Z,44.11
2019-05-09T10:57:55.201Z,44.02
2019-05-09T11:00:28.937Z,42.58
2019-05-09T11:03:08.730Z,43.08
2019-05-09T11:05:47.751Z,42.14
2019-05-09T11:08:58.379Z,42.71
2019-05-09T11:11:33.320Z,42.59
2019-05-09T11:14:09.816Z,42.32
2019-05-09T11:16:49.804Z,41.81
2019-05-09T11:19:29.227Z,41.81
2019-05-09T11:22:08.142Z,43.17
2019-05-09T11:24:48.195Z,43.08
2019-05-09T11:27:18.746Z,42.45
2019-05-09T11:29:59.458Z,41.87
2019-05-09T11:32:33.542Z,41.76
2019-05-09T11:35:18.707Z,41.81
2019-05-09T11:38:03.752Z,42.69
2019-05-09T11:40:37.677Z,40.99
2019-05-09T11:43:12.341Z,40.01
2019-05-09T11:45:47.916Z,39.76
2019-05-09T11:48:20.764Z,38.97
2019-05-09T11:50:52.221Z,37.96
2019-05-09T11:53:33.491Z,38.86
2019-05-09T11:56:13.608Z,37.01
2019-05-09T11:58:52.536Z,35.92
2019-05-09T12:01:30.000Z,37.31
2019-05-09T12:04:08.044Z,37.98
2019-05-09T12:06:40.143Z,35.91
2019-05-09T12:09:14.311Z,37.79
2019-05-09T12:11:44.664Z,37.42
2019-05-09T12:14:17.261Z,37.24
2019-05-09T12:16:50.349Z,35.96
2019-05-09T12:19:29.329Z,36.16
2019-05-09T12:22:03.174Z,35.15
2019-05-09T12:25:00.263Z,35.44
2019-05-09T12:27:40.651Z,35.17
2019-05-09T12:30:18.846Z,35.92
2019-05-09T12:32:53.819Z,36.23
2019-05-09T12:35:27.277Z,36.83
2019-05-09T12:38:20.938Z,37.25
2019-05-09T12:41:00.281Z,37.91
2019-05-09T12:43:32.939Z,38.20
2019-05-09T12:46:08.710Z,38.22
2019-05-09T12:48:42.336Z,38.38
2019-05-09T12:51:18.189Z,39.89
2019-05-09T12:53:49.199Z,39.89
2019-05-09T12:56:20.968Z,39.52
2019-05-09T12:58:59.354Z,39.24
2019-05-09T13:01:31.665Z,39.72
2019-05-09T13:04:05.362Z,39.94
2019-05-09T13:06:38.051Z,39.43
2019-05-09T13:09:17.787Z,39.13
2019-05-09T13:11:53.332Z,39.50
2019-05-09T13:14:32.051Z,39.50
2019-05-09T13:17:18.784Z,38.77
2019-05-09T13:19:52.455Z,38.39
2019-05-09T13:22:34.085Z,36.93
2019-05-09T13:25:09.605Z,36.86
2019-05-09T13:27:50.328Z,37.33
2019-05-09T13:30:29.613Z,36.22
2019-05-09T13:33:12.966Z,35.80
2019-05-09T13:35:59.509Z,38.01
2019-05-09T13:38:37.753Z,36.46
2019-05-09T13:41:20.917Z,37.04
2019-05-09T13:44:06.057Z,36.47
2019-05-09T13:46:43.724Z,36.84
2019-05-09T13:49:15.919Z,36.86
2019-05-09T13:52:12.441Z,35.95
2019-05-09T13:54:55.145Z,35.94
2019-05-09T13:57:34.684Z,36.17
2019-05-09T14:00:12.084Z,36.79
2019-05-09T14:03:01.865Z,37.03
2019-05-09T14:05:42.351Z,37.06
2019-05-09T14:08:28.524Z,37.44
2019-05-09T14:11:08.295Z,38.00
2019-05-09T14:13:48.790Z,37.83
2019-05-09T14:16:22.663Z,38.34
2019-05-09T14:18:55.737Z,38.52
2019-05-09T14:21:29.951Z,38.14
2019-05-09T14:24:11.238Z,38.03
2019-05-09T14:26:39.074Z,36.97
2019-05-09T14:29:13.241Z,37.22
2019-05-09T14:31:47.664Z,36.42
2019-05-09T14:34:24.029Z,35.25
2019-05-09T14:36:54.663Z,34.63
2019-05-09T14:39:34.781Z,34.48
2019-05-09T14:42:13.463Z,33.56
2019-05-09T14:49:11.588Z,35.26
2019-05-09T14:52:19.454Z,35.43
2019-05-09T14:54:54.391Z,35.87
2019-05-09T14:57:33.873Z,36.65
2019-05-09T15:00:15.010Z,36.69
2019-05-09T15:02:53.627Z,37.32
2019-05-09T15:05:30.633Z,37.78
2019-05-09T15:08:19.595Z,38.06
2019-05-09T15:10:58.102Z,38.97
2019-05-09T15:13:31.421Z,39.68
2019-05-09T15:16:03.646Z,38.82
2019-05-09T15:18:35.542Z,39.12
2019-05-09T15:21:10.455Z,39.70
2019-05-09T15:23:48.305Z,43.10
2019-05-09T15:26:24.168Z,40.90
2019-05-09T15:29:01.873Z,42.17
2019-05-09T15:31:39.264Z,41.81
2019-05-09T15:34:18.562Z,40.77
2019-05-09T15:36:58.323Z,40.52
2019-05-09T15:39:30.929Z,39.84
2019-05-09T15:42:07.401Z,38.83
2019-05-09T15:44:43.622Z,38.66
2019-05-09T15:47:37.977Z,37.43
2019-05-09T15:50:23.059Z,37.82
2019-05-09T15:53:14.050Z,37.68
2019-05-09T15:56:12.614Z,38.33
2019-05-09T15:59:18.831Z,38.20
2019-05-09T16:02:20.511Z,38.55
2019-05-09T16:05:27.764Z,38.16
2019-05-09T16:08:48.864Z,37.71
2019-05-09T16:11:23.198Z,37.40
2019-05-09T16:13:58.278Z,38.77
2019-05-09T16:16:30.339Z,39.05
2019-05-09T16:19:22.727Z,38.55
2019-05-09T16:21:58.026Z,38.40
2019-05-09T16:24:34.094Z,39.12
2019-05-09T16:27:08.456Z,37.79
2019-05-09T16:29:39.331Z,39.06
2019-05-09T16:32:13.709Z,39.19
2019-05-09T16:34:49.222Z,38.11
2019-05-09T16:37:22.617Z,38.32
2019-05-09T16:39:53.171Z,38.45
2019-05-09T16:42:34.439Z,38.71
2019-05-09T16:45:08.048Z,40.73
2019-05-09T16:47:41.358Z,40.92
2019-05-09T16:50:15.202Z,38.53
2019-05-09T16:52:49.015Z,38.68
2019-05-09T16:55:31.070Z,38.98
2019-05-09T16:58:03.632Z,39.03
2019-05-09T17:01:03.541Z,38.66
2019-05-09T17:03:37.825Z,38.79
2019-05-09T17:06:09.337Z,39.45
2019-05-09T17:08:41.137Z,38.86
2019-05-09T17:11:11.773Z,39.55
2019-05-09T17:13:42.357Z,39.15
2019-05-09T17:16:17.911Z,38.65
2019-05-09T17:18:59.564Z,38.76
2019-05-09T17:21:48.763Z,39.38
2019-05-09T17:24:29.641Z,39.19
2019-05-09T17:27:04.903Z,39.71
2019-05-09T17:29:39.422Z,39.38
2019-05-09T17:32:19.769Z,39.87
2019-05-09T17:34:52.341Z,41.13
2019-05-09T17:37:23.777Z,41.13
2019-05-09T17:39:55.742Z,41.51
2019-05-09T17:42:27.736Z,39.82
2019-05-09T17:45:01.991Z,41.11
2019-05-09T17:47:34.814Z,41.54
2019-05-09T17:50:07.719Z,41.53
2019-05-09T17:52:42.373Z,40.95
2019-05-09T17:55:15.372Z,41.70
2019-05-09T17:57:47.928Z,42.25
2019-05-09T18:00:22.096Z,42.01
2019-05-09T18:02:52.449Z,41.53
2019-05-09T18:05:26.089Z,42.06
2019-05-09T18:08:03.755Z,42.62
2019-05-09T18:10:51.843Z,42.57
2019-05-09T18:13:39.995Z,41.47
2019-05-09T18:16:19.686Z,41.51
2019-05-09T18:18:55.909Z,43.91
2019-05-09T18:21:50.541Z,43.91
2019-05-09T18:24:30.213Z,42.92
2019-05-09T18:27:17.953Z,42.14
2019-05-09T18:30:13.024Z,44.07
2019-05-09T18:33:04.454Z,43.24
2019-05-09T18:35:39.053Z,41.89
2019-05-09T18:38:13.929Z,40.85
2019-05-09T18:40:44.664Z,41.51
2019-05-09T18:43:17.793Z,41.50
2019-05-09T18:45:49.361Z,42.62
2019-05-09T18:48:28.115Z,43.18
2019-05-09T18:51:09.310Z,44.25
2019-05-09T18:53:43.791Z,45.44
2019-05-09T18:56:18.610Z,47.83
2019-05-09T18:58:52.255Z,48.13
2019-05-09T19:01:24.893Z,49.52
2019-05-09T19:03:55.601Z,51.41
2019-05-09T19:06:27.697Z,53.22
2019-05-09T19:11:45.100Z,56.10
2019-05-09T19:14:20.651Z,56.98
2019-05-09T19:17:10.814Z,56.77
2019-05-09T19:19:59.542Z,56.21
2019-05-09T19:22:33.459Z,56.19
2019-05-09T19:25:12.823Z,56.59
2019-05-09T19:27:47.154Z,56.20
2019-05-09T19:30:18.456Z,56.19
2019-05-09T19:32:54.131Z,55.77
2019-05-09T19:35:35.575Z,56.18
2019-05-09T19:38:20.838Z,55.53
2019-05-09T19:41:00.692Z,55.75
2019-05-09T19:43:38.545Z,56.34
2019-05-09T19:46:17.976Z,55.41
2019-05-09T19:48:49.983Z,56.35
2019-05-09T19:51:31.207Z,55.54
2019-05-09T19:54:03.535Z,55.03
2019-05-09T19:56:42.272Z,54.76
2019-05-09T19:59:18.287Z,54.65
2019-05-09T20:01:54.478Z,55.46
2019-05-09T20:04:33.676Z,55.26
2019-05-09T20:07:11.024Z,55.00
2019-05-09T20:10:00.350Z,54.51
2019-05-09T20:12:52.892Z,54.80
2019-05-09T20:15:27.312Z,54.30
2019-05-09T20:18:02.293Z,54.92
2019-05-09T20:20:37.001Z,54.92
2019-05-09T20:23:07.846Z,55.04
2019-05-09T20:25:40.411Z,55.28
2019-05-09T20:28:12.676Z,55.62
2019-05-09T20:30:44.919Z,55.25
2019-05-09T20:33:17.367Z,55.86
2019-05-09T20:35:49.052Z,56.53
2019-05-09T20:38:20.645Z,55.90
2019-05-09T20:40:55.186Z,55.14
2019-05-09T20:43:27.198Z,56.30
2019-05-09T20:45:59.764Z,58.35
2019-05-09T20:48:32.489Z,56.96
2019-05-09T20:51:05.204Z,57.71
2019-05-09T20:53:46.006Z,56.04
2019-05-09T20:56:22.418Z,56.87
2019-05-09T20:58:54.236Z,57.05
2019-05-09T21:01:27.099Z,57.95
2019-05-09T21:04:01.816Z,59.28
2019-05-09T21:06:54.504Z,59.08
2019-05-09T21:09:32.411Z,58.76
2019-05-09T21:12:02.876Z,58.48
2019-05-09T21:14:35.067Z,57.68
2019-05-09T21:17:07.548Z,56.99
2019-05-09T21:19:40.319Z,56.37
2019-05-09T21:22:13.203Z,57.44
2019-05-09T21:24:50.543Z,56.84
2019-05-09T21:27:22.769Z,56.62
2019-05-09T21:29:54.884Z,56.11
2019-05-09T21:32:28.757Z,56.28
2019-05-09T21:35:03.145Z,55.26
2019-05-09T21:37:36.358Z,56.55
2019-05-09T21:40:11.152Z,57.49
2019-05-09T21:42:47.086Z,56.14
2019-05-09T21:45:18.071Z,55.91
2019-05-09T21:47:48.744Z,56.38
2019-05-09T21:50:23.313Z,56.11
2019-05-09T21:52:55.545Z,56.28
2019-05-09T21:55:32.312Z,55.97
2019-05-09T21:58:05.974Z,55.88
2019-05-09T22:00:40.693Z,55.88
2019-05-09T22:03:14.396Z,56.36
2019-05-09T22:05:52.756Z,56.32
2019-05-09T22:08:27.545Z,56.64
2019-05-09T22:11:01.366Z,56.44
2019-05-09T22:13:32.822Z,55.89
2019-05-09T22:16:04.564Z,56.93
2019-05-09T22:18:36.648Z,57.14
2019-05-09T22:21:24.370Z,58.59
2019-05-09T22:23:57.306Z,57.57
2019-05-09T22:26:28.743Z,56.48
2019-05-09T22:29:00.989Z,56.05
2019-05-09T22:31:32.819Z,55.65
2019-05-09T22:34:03.756Z,58.10
2019-05-09T22:36:38.507Z,56.17
2019-05-09T22:39:13.355Z,55.85
2019-05-09T22:41:51.343Z,54.90
2019-05-09T22:44:30.189Z,54.94
2019-05-09T22:47:03.524Z,54.11
2019-05-09T22:49:36.248Z,55.39
2019-05-09T22:52:12.970Z,53.57
2019-05-09T22:54:50.782Z,53.51
2019-05-09T22:57:27.296Z,53.90
2019-05-09T23:00:03.086Z,53.95
2019-05-09T23:02:42.739Z,54.55
2019-05-09T23:05:14.455Z,53.82
2019-05-09T23:07:49.964Z,54.42
2019-05-09T23:10:36.043Z,54.38
2019-05-09T23:13:15.078Z,55.21
2019-05-09T23:15:55.890Z,53.94
2019-05-09T23:18:26.309Z,52.59
2019-05-09T23:20:59.540Z,53.17
2019-05-09T23:23:40.531Z,52.65
2019-05-09T23:26:15.308Z,52.91
2019-05-09T23:28:47.835Z,53.24
2019-05-09T23:31:47.028Z,53.79
2019-05-09T23:34:19.547Z,53.10
2019-05-09T23:36:51.020Z,52.34
2019-05-09T23:39:26.664Z,54.33
2019-05-09T23:41:58.997Z,53.31
2019-05-09T23:44:29.306Z,53.59
2019-05-09T23:47:01.376Z,53.13
2019-05-09T23:49:36.301Z,54.02
2019-05-09T23:52:08.993Z,52.77
2019-05-09T23:55:01.410Z,52.92
2019-05-09T23:57:50.717Z,53.44
